createdAt,value
2022-09-30T00:01:54.721Z,19.35
2022-09-30T00:04:25.763Z,19.15
2022-09-30T00:06:54.400Z,18.42
2022-09-30T00:09:21.997Z,18.50
2022-09-30T00:11:49.422Z,17.15
2022-09-30T00:14:20.559Z,16.80
2022-09-30T00:16:48.030Z,16.88
2022-09-30T00:19:18.084Z,16.98
2022-09-30T00:21:45.344Z,17.70
2022-09-30T00:24:15.058Z,17.27
2022-09-30T00:26:42.281Z,17.23
2022-09-30T00:29:10.959Z,17.40
2022-09-30T00:31:38.335Z,15.50
2022-09-30T00:34:11.744Z,15.02
2022-09-30T00:36:38.780Z,16.02
2022-09-30T00:39:08.353Z,15.35
2022-09-30T00:41:36.115Z,14.65
2022-09-30T00:44:23.294Z,15.02
2022-09-30T00:46:50.686Z,14.25
2022-09-30T00:49:23.882Z,15.05
2022-09-30T00:51:57.814Z,13.57
2022-09-30T00:54:31.118Z,14.05
2022-09-30T00:57:04.330Z,15.13
2022-09-30T00:59:38.336Z,14.77
2022-09-30T01:02:06.684Z,14.38
2022-09-30T01:04:35.335Z,14.82
2022-09-30T01:07:08.905Z,15.27
2022-09-30T01:09:39.799Z,13.55
2022-09-30T01:12:15.591Z,13.90
2022-09-30T01:14:44.972Z,13.45
2022-09-30T01:17:31.721Z,13.38
2022-09-30T01:20:52.897Z,14.00
2022-09-30T01:23:55.059Z,14.20
2022-09-30T01:27:24.734Z,13.93
2022-09-30T01:30:07.923Z,14.32
2022-09-30T01:32:53.586Z,13.75
2022-09-30T01:35:42.822Z,13.57
2022-09-30T01:38:29.494Z,13.32
2022-09-30T01:41:14.631Z,13.82
2022-09-30T01:44:11.375Z,14.00
2022-09-30T01:46:48.211Z,13.90
2022-09-30T01:49:35.012Z,13.73
2022-09-30T01:52:16.661Z,14.10
2022-09-30T01:55:14.029Z,14.07
2022-09-30T01:58:01.436Z,15.73
2022-09-30T02:00:52.306Z,14.95
2022-09-30T02:03:37.843Z,14.30
2022-09-30T02:06:21.800Z,16.20
2022-09-30T02:09:03.329Z,14.93
2022-09-30T02:11:41.118Z,14.63
2022-09-30T02:14:15.989Z,16.60
2022-09-30T02:16:55.265Z,14.77
2022-09-30T02:19:33.920Z,15.65
2022-09-30T02:22:20.252Z,14.40
2022-09-30T02:24:59.902Z,15.13
2022-09-30T02:27:35.098Z,14.57
2022-09-30T02:30:04.334Z,15.15
2022-09-30T02:33:09.578Z,14.98
2022-09-30T02:35:43.689Z,14.70
2022-09-30T02:38:24.973Z,15.43
2022-09-30T02:41:26.535Z,17.77
2022-09-30T02:43:55.742Z,18.23
2022-09-30T02:47:11.625Z,19.98
2022-09-30T02:50:02.324Z,19.02
2022-09-30T02:53:34.432Z,18.35
2022-09-30T02:56:19.826Z,19.00
2022-09-30T02:58:49.441Z,20.65
2022-09-30T03:01:17.740Z,20.73
2022-09-30T03:04:13.094Z,19.52
2022-09-30T03:06:40.288Z,19.38
2022-09-30T03:09:09.207Z,17.88
2022-09-30T03:11:40.339Z,16.08
2022-09-30T03:15:01.487Z,15.68
2022-09-30T03:18:04.350Z,17.70
2022-09-30T03:21:27.214Z,17.33
2022-09-30T03:24:37.163Z,15.90
2022-09-30T03:28:05.981Z,17.02
2022-09-30T03:30:41.577Z,16.13
2022-09-30T03:33:24.389Z,14.85
2022-09-30T03:36:15.601Z,15.13
2022-09-30T03:39:01.726Z,15.40
2022-09-30T03:41:43.886Z,14.95
2022-09-30T03:44:40.670Z,15.38
2022-09-30T03:47:12.900Z,14.93
2022-09-30T03:52:15.897Z,15.40
2022-09-30T03:55:00.636Z,15.18
2022-09-30T03:57:29.492Z,15.25
2022-09-30T04:00:02.154Z,15.05
2022-09-30T04:02:29.473Z,15.88
2022-09-30T04:04:56.679Z,15.73
2022-09-30T04:07:25.913Z,16.98
2022-09-30T04:09:53.022Z,19.90
2022-09-30T04:12:20.118Z,19.45
2022-09-30T04:14:50.343Z,17.65
2022-09-30T04:17:19.867Z,19.38
2022-09-30T04:19:47.081Z,18.10
2022-09-30T04:22:14.138Z,17.50
2022-09-30T04:24:41.378Z,16.55
2022-09-30T04:27:08.362Z,16.90
2022-09-30T04:29:35.613Z,17.35
2022-09-30T04:32:02.769Z,16.67
2022-09-30T04:34:29.778Z,16.67
2022-09-30T04:36:56.776Z,17.13
2022-09-30T04:39:24.048Z,18.65
2022-09-30T04:41:53.955Z,20.58
2022-09-30T04:44:22.712Z,20.58
2022-09-30T04:46:50.708Z,22.63
2022-09-30T04:49:18.822Z,23.00
2022-09-30T04:51:46.304Z,20.00
2022-09-30T04:54:19.451Z,19.42
2022-09-30T04:56:46.460Z,19.50
2022-09-30T04:59:21.142Z,21.27
2022-09-30T05:01:48.292Z,23.83
2022-09-30T05:04:16.702Z,23.92
2022-09-30T05:06:44.106Z,22.83
2022-09-30T05:09:11.249Z,24.05
2022-09-30T05:11:43.010Z,22.52
2022-09-30T05:14:14.907Z,23.67
2022-09-30T05:16:42.007Z,24.13
2022-09-30T05:19:11.827Z,23.63
2022-09-30T05:21:38.820Z,23.55
2022-09-30T05:24:05.827Z,24.40
2022-09-30T05:26:34.056Z,23.08
2022-09-30T05:29:01.095Z,22.63
2022-09-30T05:31:30.515Z,23.38
2022-09-30T05:33:59.844Z,23.58
2022-09-30T05:36:30.424Z,24.58
2022-09-30T05:38:57.539Z,25.48
2022-09-30T05:41:24.785Z,24.45
2022-09-30T05:43:51.880Z,25.35
2022-09-30T05:46:20.332Z,23.33
2022-09-30T05:48:47.719Z,23.02
